sensor_id;sensor_type;location;lat;lon;timestamp;noise_LAeq;noise_LA_min;noise_LA_max;noise_LA01;noise_LA95
75037;Laerm;64247;51.540;5.854;2023-07-13T00:00:21;46.12;44.49;48.79;;
75037;Laerm;64247;51.540;5.854;2023-07-13T00:02:24;46.10;44.36;48.37;;
75037;Laerm;64247;51.540;5.854;2023-07-13T00:04:25;46.24;44.47;58.14;;
75037;Laerm;64247;51.540;5.854;2023-07-13T00:06:26;46.10;44.28;48.11;;
75037;Laerm;64247;51.540;5.854;2023-07-13T00:08:31;46.33;44.16;54.90;;
75037;Laerm;64247;51.540;5.854;2023-07-13T00:10:33;46.74;44.58;50.78;;
75037;Laerm;64247;51.540;5.854;2023-07-13T00:12:36;46.68;45.04;49.95;;
75037;Laerm;64247;51.540;5.854;2023-07-13T00:14:38;46.60;44.97;48.48;;
75037;Laerm;64247;51.540;5.854;2023-07-13T00:16:40;46.51;44.55;48.07;;
75037;Laerm;64247;51.540;5.854;2023-07-13T00:18:45;46.68;44.82;49.61;;
75037;Laerm;64247;51.540;5.854;2023-07-13T00:20:46;46.59;44.51;48.32;;
75037;Laerm;64247;51.540;5.854;2023-07-13T00:22:48;46.52;44.77;48.22;;
75037;Laerm;64247;51.540;5.854;2023-07-13T00:24:49;47.31;45.07;52.67;;
75037;Laerm;64247;51.540;5.854;2023-07-13T00:26:52;46.71;44.93;48.33;;
75037;Laerm;64247;51.540;5.854;2023-07-13T00:28:53;46.68;44.72;49.11;;
75037;Laerm;64247;51.540;5.854;2023-07-13T00:30:54;46.66;44.86;49.19;;
75037;Laerm;64247;51.540;5.854;2023-07-13T00:32:55;46.82;45.12;50.07;;
75037;Laerm;64247;51.540;5.854;2023-07-13T00:34:58;49.41;45.06;61.45;;
75037;Laerm;64247;51.540;5.854;2023-07-13T00:37:01;46.95;44.99;52.69;;
75037;Laerm;64247;51.540;5.854;2023-07-13T00:39:03;46.60;44.63;60.96;;
75037;Laerm;64247;51.540;5.854;2023-07-13T00:41:05;46.61;45.05;48.97;;
75037;Laerm;64247;51.540;5.854;2023-07-13T00:43:28;46.54;44.71;48.41;;
75037;Laerm;64247;51.540;5.854;2023-07-13T00:46:31;46.59;44.75;58.35;;
75037;Laerm;64247;51.540;5.854;2023-07-13T00:48:35;46.71;44.91;57.57;;
75037;Laerm;64247;51.540;5.854;2023-07-13T00:50:38;46.71;44.73;52.76;;
75037;Laerm;64247;51.540;5.854;2023-07-13T00:52:50;46.02;44.22;48.03;;
75037;Laerm;64247;51.540;5.854;2023-07-13T00:54:52;48.42;44.66;60.57;;
75037;Laerm;64247;51.540;5.854;2023-07-13T00:57:00;46.16;44.34;50.07;;
75037;Laerm;64247;51.540;5.854;2023-07-13T00:59:06;50.16;44.39;59.59;;
75037;Laerm;64247;51.540;5.854;2023-07-13T01:01:09;46.04;44.38;48.04;;
75037;Laerm;64247;51.540;5.854;2023-07-13T01:03:09;45.98;44.14;47.99;;
75037;Laerm;64247;51.540;5.854;2023-07-13T01:05:17;47.18;44.10;71.19;;
75037;Laerm;64247;51.540;5.854;2023-07-13T01:07:19;47.11;44.38;55.78;;
75037;Laerm;64247;51.540;5.854;2023-07-13T01:09:20;46.30;44.35;48.31;;
75037;Laerm;64247;51.540;5.854;2023-07-13T01:11:22;47.64;44.95;55.13;;
75037;Laerm;64247;51.540;5.854;2023-07-13T01:13:23;46.70;44.99;48.46;;
75037;Laerm;64247;51.540;5.854;2023-07-13T01:15:45;47.37;45.25;56.15;;
75037;Laerm;64247;51.540;5.854;2023-07-13T01:17:46;46.75;44.71;49.82;;
75037;Laerm;64247;51.540;5.854;2023-07-13T01:19:47;46.84;44.69;50.29;;
75037;Laerm;64247;51.540;5.854;2023-07-13T01:21:52;49.56;44.83;59.72;;
75037;Laerm;64247;51.540;5.854;2023-07-13T01:23:54;48.26;44.65;56.60;;
75037;Laerm;64247;51.540;5.854;2023-07-13T01:25:56;48.29;44.99;55.54;;
75037;Laerm;64247;51.540;5.854;2023-07-13T01:27:58;46.58;44.78;48.30;;
75037;Laerm;64247;51.540;5.854;2023-07-13T01:29:59;46.64;44.84;50.70;;
75037;Laerm;64247;51.540;5.854;2023-07-13T01:32:05;46.48;44.87;48.15;;
75037;Laerm;64247;51.540;5.854;2023-07-13T01:34:08;46.95;44.73;53.11;;
75037;Laerm;64247;51.540;5.854;2023-07-13T01:36:11;48.70;45.16;59.00;;
75037;Laerm;64247;51.540;5.854;2023-07-13T01:38:19;46.50;44.60;48.68;;
75037;Laerm;64247;51.540;5.854;2023-07-13T01:40:21;46.62;44.54;53.76;;
75037;Laerm;64247;51.540;5.854;2023-07-13T01:42:22;46.70;44.80;49.97;;
75037;Laerm;64247;51.540;5.854;2023-07-13T01:44:23;53.04;45.24;64.73;;
75037;Laerm;64247;51.540;5.854;2023-07-13T01:46:24;46.83;44.72;53.38;;
75037;Laerm;64247;51.540;5.854;2023-07-13T01:48:25;50.04;44.92;57.85;;
75037;Laerm;64247;51.540;5.854;2023-07-13T01:50:26;46.90;44.38;52.15;;
75037;Laerm;64247;51.540;5.854;2023-07-13T01:52:27;46.66;43.88;55.52;;
75037;Laerm;64247;51.540;5.854;2023-07-13T01:54:29;45.69;43.99;48.41;;
75037;Laerm;64247;51.540;5.854;2023-07-13T01:56:30;45.69;43.99;49.06;;
75037;Laerm;64247;51.540;5.854;2023-07-13T01:58:30;49.43;44.07;60.34;;
75037;Laerm;64247;51.540;5.854;2023-07-13T02:00:32;47.81;43.70;59.95;;
75037;Laerm;64247;51.540;5.854;2023-07-13T02:02:33;46.22;44.31;51.70;;
75037;Laerm;64247;51.540;5.854;2023-07-13T02:04:36;45.93;43.69;49.92;;
75037;Laerm;64247;51.540;5.854;2023-07-13T02:06:37;49.00;44.31;59.83;;
75037;Laerm;64247;51.540;5.854;2023-07-13T02:08:38;45.80;44.16;47.56;;
75037;Laerm;64247;51.540;5.854;2023-07-13T02:10:39;46.81;44.82;50.79;;
75037;Laerm;64247;51.540;5.854;2023-07-13T02:12:41;51.64;45.15;61.72;;
75037;Laerm;64247;51.540;5.854;2023-07-13T02:14:43;48.32;44.68;58.82;;
75037;Laerm;64247;51.540;5.854;2023-07-13T02:16:44;49.39;45.07;58.56;;
75037;Laerm;64247;51.540;5.854;2023-07-13T02:18:44;47.15;44.59;55.81;;
75037;Laerm;64247;51.540;5.854;2023-07-13T02:20:45;47.43;44.94;53.23;;
75037;Laerm;64247;51.540;5.854;2023-07-13T02:22:46;47.93;45.64;51.96;;
75037;Laerm;64247;51.540;5.854;2023-07-13T02:24:48;48.57;45.22;61.48;;
75037;Laerm;64247;51.540;5.854;2023-07-13T02:26:53;46.85;44.61;51.87;;
75037;Laerm;64247;51.540;5.854;2023-07-13T02:28:55;47.50;45.13;54.81;;
75037;Laerm;64247;51.540;5.854;2023-07-13T02:31:06;46.93;45.06;50.71;;
75037;Laerm;64247;51.540;5.854;2023-07-13T02:33:07;46.99;44.83;55.97;;
75037;Laerm;64247;51.540;5.854;2023-07-13T02:35:08;47.17;44.96;62.21;;
75037;Laerm;64247;51.540;5.854;2023-07-13T02:37:09;53.77;45.07;73.18;;
75037;Laerm;64247;51.540;5.854;2023-07-13T02:39:13;52.16;45.56;59.49;;
75037;Laerm;64247;51.540;5.854;2023-07-13T02:41:14;48.19;44.99;55.55;;
75037;Laerm;64247;51.540;5.854;2023-07-13T02:43:15;50.51;46.13;59.17;;
75037;Laerm;64247;51.540;5.854;2023-07-13T02:45:15;50.18;45.48;60.99;;
75037;Laerm;64247;51.540;5.854;2023-07-13T02:47:17;50.70;45.90;61.16;;
75037;Laerm;64247;51.540;5.854;2023-07-13T02:49:17;47.93;45.37;58.47;;
75037;Laerm;64247;51.540;5.854;2023-07-13T02:51:18;48.81;45.14;56.75;;
75037;Laerm;64247;51.540;5.854;2023-07-13T02:53:20;46.72;44.59;53.79;;
75037;Laerm;64247;51.540;5.854;2023-07-13T02:55:20;50.45;45.18;60.75;;
75037;Laerm;64247;51.540;5.854;2023-07-13T02:57:21;51.52;45.33;60.78;;
75037;Laerm;64247;51.540;5.854;2023-07-13T02:59:22;48.38;45.16;54.74;;
75037;Laerm;64247;51.540;5.854;2023-07-13T03:01:24;49.62;44.70;59.96;;
75037;Laerm;64247;51.540;5.854;2023-07-13T03:03:26;47.79;44.63;55.67;;
75037;Laerm;64247;51.540;5.854;2023-07-13T03:05:27;47.05;44.66;63.47;;
75037;Laerm;64247;51.540;5.854;2023-07-13T03:07:30;50.78;45.21;60.55;;
75037;Laerm;64247;51.540;5.854;2023-07-13T03:09:34;48.80;45.15;56.20;;
75037;Laerm;64247;51.540;5.854;2023-07-13T03:11:36;51.56;45.31;60.39;;
75037;Laerm;64247;51.540;5.854;2023-07-13T03:13:47;52.58;45.93;63.60;;
75037;Laerm;64247;51.540;5.854;2023-07-13T03:15:49;50.10;45.59;59.64;;
75037;Laerm;64247;51.540;5.854;2023-07-13T03:17:50;53.49;46.09;61.85;;
75037;Laerm;64247;51.540;5.854;2023-07-13T03:19:51;49.93;46.26;56.88;;
75037;Laerm;64247;51.540;5.854;2023-07-13T03:21:52;51.43;47.57;57.02;;
75037;Laerm;64247;51.540;5.854;2023-07-13T03:23:54;53.73;47.57;62.34;;
75037;Laerm;64247;51.540;5.854;2023-07-13T03:26:16;51.71;46.15;60.34;;
75037;Laerm;64247;51.540;5.854;2023-07-13T03:28:18;51.16;47.56;56.51;;
75037;Laerm;64247;51.540;5.854;2023-07-13T03:30:19;53.66;48.19;61.81;;
75037;Laerm;64247;51.540;5.854;2023-07-13T03:32:20;53.27;46.79;68.95;;
75037;Laerm;64247;51.540;5.854;2023-07-13T03:34:21;55.20;48.77;65.27;;
75037;Laerm;64247;51.540;5.854;2023-07-13T03:36:26;50.20;46.03;56.29;;
75037;Laerm;64247;51.540;5.854;2023-07-13T03:38:30;50.43;45.40;58.49;;
75037;Laerm;64247;51.540;5.854;2023-07-13T03:40:31;52.14;47.44;66.73;;
75037;Laerm;64247;51.540;5.854;2023-07-13T03:42:32;51.35;46.16;62.76;;
75037;Laerm;64247;51.540;5.854;2023-07-13T03:44:33;52.39;47.05;65.64;;
75037;Laerm;64247;51.540;5.854;2023-07-13T03:46:33;53.29;48.00;66.61;;
75037;Laerm;64247;51.540;5.854;2023-07-13T03:48:35;53.56;48.32;62.45;;
75037;Laerm;64247;51.540;5.854;2023-07-13T03:50:36;51.82;46.34;62.03;;
75037;Laerm;64247;51.540;5.854;2023-07-13T03:52:38;52.14;47.16;72.46;;
75037;Laerm;64247;51.540;5.854;2023-07-13T03:54:39;51.61;46.60;58.68;;
75037;Laerm;64247;51.540;5.854;2023-07-13T03:56:41;51.18;46.93;58.51;;
75037;Laerm;64247;51.540;5.854;2023-07-13T03:58:47;49.30;46.02;64.18;;
75037;Laerm;64247;51.540;5.854;2023-07-13T04:00:51;51.35;46.24;59.47;;
75037;Laerm;64247;51.540;5.854;2023-07-13T04:02:52;51.48;46.62;65.04;;
75037;Laerm;64247;51.540;5.854;2023-07-13T04:04:53;54.80;47.94;63.00;;
75037;Laerm;64247;51.540;5.854;2023-07-13T04:06:59;53.80;46.75;61.92;;
75037;Laerm;64247;51.540;5.854;2023-07-13T04:09:03;53.87;47.04;62.37;;
75037;Laerm;64247;51.540;5.854;2023-07-13T04:11:07;52.11;45.70;62.59;;
75037;Laerm;64247;51.540;5.854;2023-07-13T04:13:08;54.84;47.00;64.35;;
75037;Laerm;64247;51.540;5.854;2023-07-13T04:15:09;56.05;48.95;68.91;;
75037;Laerm;64247;51.540;5.854;2023-07-13T04:17:10;54.74;46.82;64.30;;
75037;Laerm;64247;51.540;5.854;2023-07-13T04:19:11;52.14;46.87;64.39;;
75037;Laerm;64247;51.540;5.854;2023-07-13T04:21:13;54.27;48.71;66.90;;
75037;Laerm;64247;51.540;5.854;2023-07-13T04:23:15;52.68;47.45;65.88;;
75037;Laerm;64247;51.540;5.854;2023-07-13T04:25:16;53.45;47.60;60.71;;
75037;Laerm;64247;51.540;5.854;2023-07-13T04:27:17;58.02;51.82;76.71;;
75037;Laerm;64247;51.540;5.854;2023-07-13T04:29:18;54.88;48.97;66.07;;
75037;Laerm;64247;51.540;5.854;2023-07-13T04:31:19;55.52;48.13;66.04;;
75037;Laerm;64247;51.540;5.854;2023-07-13T04:33:21;55.58;49.23;65.13;;
75037;Laerm;64247;51.540;5.854;2023-07-13T04:35:23;54.39;48.15;63.74;;
75037;Laerm;64247;51.540;5.854;2023-07-13T04:37:24;56.38;49.80;63.61;;
75037;Laerm;64247;51.540;5.854;2023-07-13T04:39:24;54.61;51.07;61.99;;
75037;Laerm;64247;51.540;5.854;2023-07-13T04:41:28;56.97;50.73;66.50;;
75037;Laerm;64247;51.540;5.854;2023-07-13T04:43:31;57.68;50.49;74.86;;
75037;Laerm;64247;51.540;5.854;2023-07-13T04:45:32;54.54;49.78;63.86;;
75037;Laerm;64247;51.540;5.854;2023-07-13T04:47:33;54.46;50.00;62.17;;
75037;Laerm;64247;51.540;5.854;2023-07-13T04:49:34;60.55;49.24;81.13;;
75037;Laerm;64247;51.540;5.854;2023-07-13T04:51:35;54.82;51.02;60.27;;
75037;Laerm;64247;51.540;5.854;2023-07-13T04:53:36;53.88;48.61;61.03;;
75037;Laerm;64247;51.540;5.854;2023-07-13T04:55:37;54.44;49.36;60.48;;
75037;Laerm;64247;51.540;5.854;2023-07-13T04:57:38;53.49;48.82;62.29;;
75037;Laerm;64247;51.540;5.854;2023-07-13T04:59:39;56.56;50.34;62.29;;
75037;Laerm;64247;51.540;5.854;2023-07-13T05:01:41;52.97;47.06;61.92;;
75037;Laerm;64247;51.540;5.854;2023-07-13T05:03:42;54.26;49.88;61.93;;
75037;Laerm;64247;51.540;5.854;2023-07-13T05:05:43;57.50;49.89;71.73;;
75037;Laerm;64247;51.540;5.854;2023-07-13T05:07:44;55.30;50.17;67.69;;
75037;Laerm;64247;51.540;5.854;2023-07-13T05:09:45;54.16;50.72;61.31;;
75037;Laerm;64247;51.540;5.854;2023-07-13T05:11:45;54.31;49.51;65.28;;
75037;Laerm;64247;51.540;5.854;2023-07-13T05:13:46;53.84;47.86;60.16;;
75037;Laerm;64247;51.540;5.854;2023-07-13T05:16:03;54.69;49.50;60.96;;
75037;Laerm;64247;51.540;5.854;2023-07-13T05:18:05;53.13;48.06;60.58;;
75037;Laerm;64247;51.540;5.854;2023-07-13T05:20:08;53.55;49.35;59.24;;
75037;Laerm;64247;51.540;5.854;2023-07-13T05:22:10;53.97;48.01;60.71;;
75037;Laerm;64247;51.540;5.854;2023-07-13T05:24:11;55.38;50.63;62.87;;
75037;Laerm;64247;51.540;5.854;2023-07-13T05:26:12;54.75;49.80;66.27;;
75037;Laerm;64247;51.540;5.854;2023-07-13T05:28:13;56.78;50.70;69.89;;
75037;Laerm;64247;51.540;5.854;2023-07-13T05:30:14;53.29;47.89;61.75;;
75037;Laerm;64247;51.540;5.854;2023-07-13T05:32:15;53.83;49.19;61.70;;
75037;Laerm;64247;51.540;5.854;2023-07-13T05:34:16;56.48;50.28;66.11;;
75037;Laerm;64247;51.540;5.854;2023-07-13T05:36:17;54.35;50.22;60.13;;
75037;Laerm;64247;51.540;5.854;2023-07-13T05:38:18;53.93;48.71;61.39;;
75037;Laerm;64247;51.540;5.854;2023-07-13T05:40:19;55.22;51.17;60.32;;
75037;Laerm;64247;51.540;5.854;2023-07-13T05:42:20;55.17;50.76;61.91;;
75037;Laerm;64247;51.540;5.854;2023-07-13T05:44:20;56.23;50.16;66.39;;
75037;Laerm;64247;51.540;5.854;2023-07-13T05:46:21;57.94;53.10;72.06;;
75037;Laerm;64247;51.540;5.854;2023-07-13T05:48:23;56.72;50.26;65.07;;
75037;Laerm;64247;51.540;5.854;2023-07-13T05:50:25;56.04;50.21;67.72;;
75037;Laerm;64247;51.540;5.854;2023-07-13T05:52:29;55.98;50.83;63.08;;
75037;Laerm;64247;51.540;5.854;2023-07-13T05:54:29;55.06;49.15;61.58;;
75037;Laerm;64247;51.540;5.854;2023-07-13T05:56:30;53.50;49.52;59.41;;
75037;Laerm;64247;51.540;5.854;2023-07-13T05:58:31;54.83;49.63;60.99;;
75037;Laerm;64247;51.540;5.854;2023-07-13T06:00:32;53.80;48.11;63.53;;
75037;Laerm;64247;51.540;5.854;2023-07-13T06:02:35;54.15;48.62;61.68;;
75037;Laerm;64247;51.540;5.854;2023-07-13T06:04:36;53.82;48.90;63.55;;
75037;Laerm;64247;51.540;5.854;2023-07-13T06:06:37;55.96;49.39;62.70;;
75037;Laerm;64247;51.540;5.854;2023-07-13T06:08:38;55.34;48.29;62.44;;
75037;Laerm;64247;51.540;5.854;2023-07-13T06:10:39;56.93;49.01;67.09;;
75037;Laerm;64247;51.540;5.854;2023-07-13T06:12:40;54.55;48.03;61.88;;
75037;Laerm;64247;51.540;5.854;2023-07-13T06:14:41;54.45;48.76;62.38;;
75037;Laerm;64247;51.540;5.854;2023-07-13T06:16:42;56.15;49.54;67.53;;
75037;Laerm;64247;51.540;5.854;2023-07-13T06:18:44;54.85;49.96;63.92;;
75037;Laerm;64247;51.540;5.854;2023-07-13T06:20:45;54.24;49.07;63.81;;
75037;Laerm;64247;51.540;5.854;2023-07-13T06:22:49;54.46;48.78;63.16;;
75037;Laerm;64247;51.540;5.854;2023-07-13T06:24:49;52.61;48.03;65.85;;
75037;Laerm;64247;51.540;5.854;2023-07-13T06:26:50;53.73;48.21;60.50;;
75037;Laerm;64247;51.540;5.854;2023-07-13T06:28:52;58.30;52.74;74.72;;
75037;Laerm;64247;51.540;5.854;2023-07-13T06:30:53;56.17;51.23;65.77;;
75037;Laerm;64247;51.540;5.854;2023-07-13T06:32:54;55.55;48.76;63.32;;
75037;Laerm;64247;51.540;5.854;2023-07-13T06:34:55;56.59;50.68;67.02;;
75037;Laerm;64247;51.540;5.854;2023-07-13T06:36:56;55.22;47.09;65.64;;
75037;Laerm;64247;51.540;5.854;2023-07-13T06:38:57;59.39;49.44;81.16;;
75037;Laerm;64247;51.540;5.854;2023-07-13T06:40:58;58.17;49.21;85.35;;
75037;Laerm;64247;51.540;5.854;2023-07-13T06:42:59;53.39;48.39;61.13;;
75037;Laerm;64247;51.540;5.854;2023-07-13T06:45:00;53.13;49.03;61.17;;
75037;Laerm;64247;51.540;5.854;2023-07-13T06:47:01;55.17;48.10;70.38;;
75037;Laerm;64247;51.540;5.854;2023-07-13T06:49:02;56.70;52.91;63.27;;
75037;Laerm;64247;51.540;5.854;2023-07-13T06:51:03;56.42;52.26;65.79;;
75037;Laerm;64247;51.540;5.854;2023-07-13T06:53:04;56.13;52.13;64.64;;
75037;Laerm;64247;51.540;5.854;2023-07-13T06:55:08;55.54;51.97;63.80;;
75037;Laerm;64247;51.540;5.854;2023-07-13T06:57:09;61.44;52.80;70.12;;
75037;Laerm;64247;51.540;5.854;2023-07-13T06:59:10;59.04;48.90;72.56;;
75037;Laerm;64247;51.540;5.854;2023-07-13T07:01:11;52.85;48.07;61.43;;
75037;Laerm;64247;51.540;5.854;2023-07-13T07:03:12;52.44;47.67;61.59;;
75037;Laerm;64247;51.540;5.854;2023-07-13T07:05:13;53.62;48.47;65.64;;
75037;Laerm;64247;51.540;5.854;2023-07-13T07:07:14;51.84;45.16;66.91;;
75037;Laerm;64247;51.540;5.854;2023-07-13T07:09:15;55.50;49.25;70.83;;
75037;Laerm;64247;51.540;5.854;2023-07-13T07:11:21;53.70;47.77;61.03;;
75037;Laerm;64247;51.540;5.854;2023-07-13T07:13:25;53.42;48.85;60.31;;
75037;Laerm;64247;51.540;5.854;2023-07-13T07:15:29;53.41;48.14;63.64;;
75037;Laerm;64247;51.540;5.854;2023-07-13T07:17:30;56.89;48.79;66.77;;
75037;Laerm;64247;51.540;5.854;2023-07-13T07:19:31;51.56;47.12;60.32;;
75037;Laerm;64247;51.540;5.854;2023-07-13T07:21:32;51.74;47.45;57.73;;
75037;Laerm;64247;51.540;5.854;2023-07-13T07:23:33;54.43;47.80;66.48;;
75037;Laerm;64247;51.540;5.854;2023-07-13T07:25:34;53.83;49.00;63.81;;
75037;Laerm;64247;51.540;5.854;2023-07-13T07:27:38;55.63;49.02;66.48;;
75037;Laerm;64247;51.540;5.854;2023-07-13T07:29:38;53.91;47.52;65.34;;
75037;Laerm;64247;51.540;5.854;2023-07-13T07:31:39;54.29;48.40;59.38;;
75037;Laerm;64247;51.540;5.854;2023-07-13T07:34:00;58.90;50.99;71.64;;
75037;Laerm;64247;51.540;5.854;2023-07-13T07:36:02;53.75;48.25;62.53;;
75037;Laerm;64247;51.540;5.854;2023-07-13T07:38:04;56.88;49.76;71.06;;
75037;Laerm;64247;51.540;5.854;2023-07-13T07:40:06;53.43;47.96;64.82;;
75037;Laerm;64247;51.540;5.854;2023-07-13T07:42:07;56.22;49.63;69.03;;
75037;Laerm;64247;51.540;5.854;2023-07-13T07:44:08;54.58;49.36;63.32;;
75037;Laerm;64247;51.540;5.854;2023-07-13T07:46:10;56.40;50.12;69.81;;
75037;Laerm;64247;51.540;5.854;2023-07-13T07:48:11;55.00;50.03;63.26;;
75037;Laerm;64247;51.540;5.854;2023-07-13T07:50:13;57.44;49.21;74.86;;
75037;Laerm;64247;51.540;5.854;2023-07-13T07:52:14;51.77;48.15;59.56;;
75037;Laerm;64247;51.540;5.854;2023-07-13T07:54:15;53.39;49.27;59.67;;
75037;Laerm;64247;51.540;5.854;2023-07-13T07:56:17;57.00;49.79;63.15;;
75037;Laerm;64247;51.540;5.854;2023-07-13T07:58:18;56.49;49.39;64.97;;
75037;Laerm;64247;51.540;5.854;2023-07-13T08:00:20;54.32;47.65;65.18;;
75037;Laerm;64247;51.540;5.854;2023-07-13T08:02:21;52.92;47.18;63.78;;
75037;Laerm;64247;51.540;5.854;2023-07-13T08:04:22;53.42;48.71;69.96;;
75037;Laerm;64247;51.540;5.854;2023-07-13T08:06:24;53.04;47.86;70.88;;
75037;Laerm;64247;51.540;5.854;2023-07-13T08:08:25;53.53;47.07;62.28;;
75037;Laerm;64247;51.540;5.854;2023-07-13T08:10:26;53.17;47.97;62.88;;
75037;Laerm;64247;51.540;5.854;2023-07-13T08:12:28;53.56;47.11;63.83;;
75037;Laerm;64247;51.540;5.854;2023-07-13T08:14:28;53.33;47.81;59.93;;
75037;Laerm;64247;51.540;5.854;2023-07-13T08:16:30;55.31;49.43;78.49;;
75037;Laerm;64247;51.540;5.854;2023-07-13T08:18:33;51.14;47.35;63.13;;
75037;Laerm;64247;51.540;5.854;2023-07-13T08:20:39;52.67;47.78;61.28;;
75037;Laerm;64247;51.540;5.854;2023-07-13T08:22:40;56.03;47.06;72.32;;
75037;Laerm;64247;51.540;5.854;2023-07-13T08:24:41;53.64;48.65;62.28;;
75037;Laerm;64247;51.540;5.854;2023-07-13T08:26:45;54.40;47.63;64.01;;
75037;Laerm;64247;51.540;5.854;2023-07-13T08:28:49;55.68;49.24;68.64;;
75037;Laerm;64247;51.540;5.854;2023-07-13T08:30:50;61.21;52.56;72.05;;
75037;Laerm;64247;51.540;5.854;2023-07-13T08:32:53;57.72;52.25;69.58;;
75037;Laerm;64247;51.540;5.854;2023-07-13T08:34:54;55.15;49.55;68.86;;
75037;Laerm;64247;51.540;5.854;2023-07-13T08:36:55;53.24;47.54;63.63;;
75037;Laerm;64247;51.540;5.854;2023-07-13T08:38:56;55.81;50.18;67.65;;
75037;Laerm;64247;51.540;5.854;2023-07-13T08:40:57;56.15;48.15;68.12;;
75037;Laerm;64247;51.540;5.854;2023-07-13T08:42:59;55.23;47.88;63.15;;
75037;Laerm;64247;51.540;5.854;2023-07-13T08:48:17;56.10;49.22;68.26;;
75037;Laerm;64247;51.540;5.854;2023-07-13T08:50:25;54.35;48.85;63.15;;
75037;Laerm;64247;51.540;5.854;2023-07-13T08:52:46;51.20;45.54;59.42;;
75037;Laerm;64247;51.540;5.854;2023-07-13T08:54:53;54.64;46.74;64.12;;
75037;Laerm;64247;51.540;5.854;2023-07-13T08:56:57;54.28;47.76;63.79;;
75037;Laerm;64247;51.540;5.854;2023-07-13T08:59:13;55.95;48.13;65.76;;
75037;Laerm;64247;51.540;5.854;2023-07-13T09:01:28;53.49;47.91;67.60;;
75037;Laerm;64247;51.540;5.854;2023-07-13T09:03:41;56.80;49.44;75.05;;
75037;Laerm;64247;51.540;5.854;2023-07-13T09:05:51;56.88;49.54;68.89;;
75037;Laerm;64247;51.540;5.854;2023-07-13T09:11:36;58.59;49.36;72.08;;
75037;Laerm;64247;51.540;5.854;2023-07-13T09:16:46;59.25;49.26;81.97;;
75037;Laerm;64247;51.540;5.854;2023-07-13T09:18:53;58.18;48.84;73.66;;
75037;Laerm;64247;51.540;5.854;2023-07-13T09:21:12;54.60;47.90;63.91;;
75037;Laerm;64247;51.540;5.854;2023-07-13T09:23:20;55.01;47.88;67.20;;
75037;Laerm;64247;51.540;5.854;2023-07-13T09:25:41;58.06;49.00;70.68;;
75037;Laerm;64247;51.540;5.854;2023-07-13T09:27:47;56.26;49.60;66.76;;
75037;Laerm;64247;51.540;5.854;2023-07-13T09:30:15;56.93;49.85;68.88;;
75037;Laerm;64247;51.540;5.854;2023-07-13T09:32:24;52.82;47.64;64.19;;
75037;Laerm;64247;51.540;5.854;2023-07-13T09:34:26;57.84;50.44;70.90;;
75037;Laerm;64247;51.540;5.854;2023-07-13T09:36:33;60.87;49.20;72.86;;
75037;Laerm;64247;51.540;5.854;2023-07-13T09:38:36;53.32;49.08;64.40;;
75037;Laerm;64247;51.540;5.854;2023-07-13T09:40:56;54.12;48.60;66.69;;
75037;Laerm;64247;51.540;5.854;2023-07-13T09:43:01;51.71;46.94;65.32;;
75037;Laerm;64247;51.540;5.854;2023-07-13T09:45:04;56.45;47.81;66.61;;
75037;Laerm;64247;51.540;5.854;2023-07-13T09:47:27;54.67;48.54;64.62;;
75037;Laerm;64247;51.540;5.854;2023-07-13T09:49:35;58.96;47.70;77.51;;
75037;Laerm;64247;51.540;5.854;2023-07-13T09:51:40;53.19;48.46;67.24;;
75037;Laerm;64247;51.540;5.854;2023-07-13T09:53:43;56.39;49.24;65.02;;
75037;Laerm;64247;51.540;5.854;2023-07-13T09:55:48;58.88;51.58;69.17;;
75037;Laerm;64247;51.540;5.854;2023-07-13T09:57:49;55.55;48.72;65.12;;
75037;Laerm;64247;51.540;5.854;2023-07-13T09:59:53;53.25;48.09;65.13;;
75037;Laerm;64247;51.540;5.854;2023-07-13T10:01:57;51.23;47.05;58.79;;
75037;Laerm;64247;51.540;5.854;2023-07-13T10:03:57;57.89;48.89;70.19;;
75037;Laerm;64247;51.540;5.854;2023-07-13T10:06:21;53.34;47.12;65.77;;
75037;Laerm;64247;51.540;5.854;2023-07-13T10:08:29;59.03;50.00;70.03;;
75037;Laerm;64247;51.540;5.854;2023-07-13T10:10:31;58.85;52.16;69.98;;
75037;Laerm;64247;51.540;5.854;2023-07-13T10:12:38;58.88;49.88;72.25;;
75037;Laerm;64247;51.540;5.854;2023-07-13T10:14:41;55.76;48.59;66.01;;
75037;Laerm;64247;51.540;5.854;2023-07-13T10:16:45;59.00;48.12;76.70;;
75037;Laerm;64247;51.540;5.854;2023-07-13T10:18:53;59.20;46.90;69.88;;
75037;Laerm;64247;51.540;5.854;2023-07-13T10:21:17;55.84;47.91;67.17;;
75037;Laerm;64247;51.540;5.854;2023-07-13T10:23:31;57.98;48.75;77.04;;
75037;Laerm;64247;51.540;5.854;2023-07-13T10:25:39;58.36;47.03;74.86;;
75037;Laerm;64247;51.540;5.854;2023-07-13T10:27:41;55.54;47.63;66.18;;
75037;Laerm;64247;51.540;5.854;2023-07-13T10:32:33;54.82;50.41;64.30;;
75037;Laerm;64247;51.540;5.854;2023-07-13T10:34:34;55.90;49.84;72.24;;
75037;Laerm;64247;51.540;5.854;2023-07-13T10:36:47;55.93;46.80;73.94;;
75037;Laerm;64247;51.540;5.854;2023-07-13T10:38:51;58.22;46.44;84.28;;
75037;Laerm;64247;51.540;5.854;2023-07-13T10:41:05;54.41;48.86;74.59;;
75037;Laerm;64247;51.540;5.854;2023-07-13T10:43:18;58.12;50.13;77.54;;
75037;Laerm;64247;51.540;5.854;2023-07-13T10:45:23;58.49;51.17;72.72;;
75037;Laerm;64247;51.540;5.854;2023-07-13T10:47:26;61.31;50.20;77.31;;
75037;Laerm;64247;51.540;5.854;2023-07-13T10:49:31;57.74;51.51;69.44;;
75037;Laerm;64247;51.540;5.854;2023-07-13T10:51:33;56.97;50.93;68.69;;
75037;Laerm;64247;51.540;5.854;2023-07-13T10:53:38;53.88;46.32;64.03;;
75037;Laerm;64247;51.540;5.854;2023-07-13T10:56:29;55.92;45.64;65.28;;
75037;Laerm;64247;51.540;5.854;2023-07-13T11:01:23;72.88;47.16;82.98;;
75037;Laerm;64247;51.540;5.854;2023-07-13T11:03:28;64.28;51.06;80.68;;
75037;Laerm;64247;51.540;5.854;2023-07-13T11:05:33;58.28;49.00;67.74;;
75037;Laerm;64247;51.540;5.854;2023-07-13T11:08:02;58.69;51.27;72.68;;
75037;Laerm;64247;51.540;5.854;2023-07-13T11:10:05;54.27;49.07;63.51;;
75037;Laerm;64247;51.540;5.854;2023-07-13T11:12:52;59.47;49.13;74.47;;
75037;Laerm;64247;51.540;5.854;2023-07-13T11:15:30;55.74;48.34;75.03;;
75037;Laerm;64247;51.540;5.854;2023-07-13T11:20:22;58.93;50.58;71.07;;
75037;Laerm;64247;51.540;5.854;2023-07-13T11:22:48;59.18;50.95;80.24;;
75037;Laerm;64247;51.540;5.854;2023-07-13T11:25:00;59.59;50.74;71.25;;
75037;Laerm;64247;51.540;5.854;2023-07-13T11:29:48;65.50;52.05;96.32;;
75037;Laerm;64247;51.540;5.854;2023-07-13T11:31:54;62.75;52.33;82.05;;
75037;Laerm;64247;51.540;5.854;2023-07-13T11:33:58;57.38;51.02;77.69;;
75037;Laerm;64247;51.540;5.854;2023-07-13T11:38:42;61.82;51.40;78.66;;
75037;Laerm;64247;51.540;5.854;2023-07-13T11:40:46;59.71;51.54;80.03;;
75037;Laerm;64247;51.540;5.854;2023-07-13T11:42:48;59.12;51.74;84.37;;
75037;Laerm;64247;51.540;5.854;2023-07-13T11:44:52;55.45;50.09;64.43;;
75037;Laerm;64247;51.540;5.854;2023-07-13T11:46:58;59.15;49.94;73.81;;
75037;Laerm;64247;51.540;5.854;2023-07-13T11:49:01;54.66;49.63;71.01;;
75037;Laerm;64247;51.540;5.854;2023-07-13T11:51:06;54.24;47.96;73.28;;
75037;Laerm;64247;51.540;5.854;2023-07-13T11:53:10;53.32;46.84;65.85;;
75037;Laerm;64247;51.540;5.854;2023-07-13T11:55:18;53.13;48.56;60.93;;
75037;Laerm;64247;51.540;5.854;2023-07-13T11:58:04;56.41;48.47;82.76;;